sensor_id;sensor_type;location;lat;lon;timestamp;P1;durP1;ratioP1;P2;durP2;ratioP2
18526;SDS011;9393;42.158;24.748;2022-10-14T00:01:29;5.07;;;1.93;;
18526;SDS011;9393;42.158;24.748;2022-10-14T00:04:33;5.33;;;2.10;;
18526;SDS011;9393;42.158;24.748;2022-10-14T00:07:36;8.00;;;2.40;;
18526;SDS011;9393;42.158;24.748;2022-10-14T00:10:40;3.43;;;2.13;;
18526;SDS011;9393;42.158;24.748;2022-10-14T00:13:45;4.27;;;2.00;;
18526;SDS011;9393;42.158;24.748;2022-10-14T00:16:51;2.53;;;1.83;;
18526;SDS011;9393;42.158;24.748;2022-10-14T00:19:55;2.97;;;1.90;;
18526;SDS011;9393;42.158;24.748;2022-10-14T00:22:58;2.87;;;2.00;;
18526;SDS011;9393;42.158;24.748;2022-10-14T00:26:02;2.37;;;2.00;;
18526;SDS011;9393;42.158;24.748;2022-10-14T00:29:11;3.90;;;2.17;;
18526;SDS011;9393;42.158;24.748;2022-10-14T00:32:16;5.40;;;2.10;;
18526;SDS011;9393;42.158;24.748;2022-10-14T00:35:19;2.93;;;2.13;;
18526;SDS011;9393;42.158;24.748;2022-10-14T00:38:23;3.90;;;2.20;;
18526;SDS011;9393;42.158;24.748;2022-10-14T00:41:26;4.33;;;2.50;;
18526;SDS011;9393;42.158;24.748;2022-10-14T00:48:09;8.73;;;2.30;;
18526;SDS011;9393;42.158;24.748;2022-10-14T00:51:13;6.60;;;2.23;;
18526;SDS011;9393;42.158;24.748;2022-10-14T00:54:17;4.17;;;2.07;;
18526;SDS011;9393;42.158;24.748;2022-10-14T00:57:31;3.30;;;1.90;;
18526;SDS011;9393;42.158;24.748;2022-10-14T01:00:38;4.97;;;2.20;;
18526;SDS011;9393;42.158;24.748;2022-10-14T01:03:42;5.13;;;2.27;;
18526;SDS011;9393;42.158;24.748;2022-10-14T01:06:46;7.13;;;2.10;;
18526;SDS011;9393;42.158;24.748;2022-10-14T01:09:59;3.70;;;1.80;;
18526;SDS011;9393;42.158;24.748;2022-10-14T01:13:10;4.00;;;2.27;;
18526;SDS011;9393;42.158;24.748;2022-10-14T01:16:22;3.30;;;1.80;;
18526;SDS011;9393;42.158;24.748;2022-10-14T01:23:15;5.27;;;2.10;;
18526;SDS011;9393;42.158;24.748;2022-10-14T01:30:14;3.80;;;2.27;;
18526;SDS011;9393;42.158;24.748;2022-10-14T01:33:21;6.43;;;2.20;;
18526;SDS011;9393;42.158;24.748;2022-10-14T01:36:28;4.50;;;2.20;;
18526;SDS011;9393;42.158;24.748;2022-10-14T01:39:36;4.73;;;2.03;;
18526;SDS011;9393;42.158;24.748;2022-10-14T01:42:44;6.70;;;2.73;;
18526;SDS011;9393;42.158;24.748;2022-10-14T01:45:51;4.43;;;2.10;;
18526;SDS011;9393;42.158;24.748;2022-10-14T01:48:57;6.00;;;2.43;;
18526;SDS011;9393;42.158;24.748;2022-10-14T01:52:04;3.37;;;2.10;;
18526;SDS011;9393;42.158;24.748;2022-10-14T01:55:14;5.20;;;2.23;;
18526;SDS011;9393;42.158;24.748;2022-10-14T01:58:22;5.37;;;2.20;;
18526;SDS011;9393;42.158;24.748;2022-10-14T02:01:29;4.77;;;2.03;;
18526;SDS011;9393;42.158;24.748;2022-10-14T02:04:32;4.30;;;2.03;;
18526;SDS011;9393;42.158;24.748;2022-10-14T02:07:36;5.03;;;1.90;;
18526;SDS011;9393;42.158;24.748;2022-10-14T02:10:48;4.37;;;1.90;;
18526;SDS011;9393;42.158;24.748;2022-10-14T02:14:05;3.13;;;1.63;;
18526;SDS011;9393;42.158;24.748;2022-10-14T02:17:17;5.23;;;1.70;;
18526;SDS011;9393;42.158;24.748;2022-10-14T02:20:26;5.67;;;2.10;;
18526;SDS011;9393;42.158;24.748;2022-10-14T02:23:34;2.67;;;1.67;;
18526;SDS011;9393;42.158;24.748;2022-10-14T02:26:43;3.80;;;2.00;;
18526;SDS011;9393;42.158;24.748;2022-10-14T02:29:48;1.83;;;1.07;;
18526;SDS011;9393;42.158;24.748;2022-10-14T02:32:56;2.33;;;1.50;;
18526;SDS011;9393;42.158;24.748;2022-10-14T02:36:02;3.57;;;1.60;;
18526;SDS011;9393;42.158;24.748;2022-10-14T02:39:10;7.73;;;2.00;;
18526;SDS011;9393;42.158;24.748;2022-10-14T02:42:17;9.57;;;2.17;;
18526;SDS011;9393;42.158;24.748;2022-10-14T02:45:21;5.23;;;1.67;;
18526;SDS011;9393;42.158;24.748;2022-10-14T02:48:27;5.80;;;1.90;;
18526;SDS011;9393;42.158;24.748;2022-10-14T02:51:31;4.93;;;1.77;;
18526;SDS011;9393;42.158;24.748;2022-10-14T02:54:35;3.37;;;1.90;;
18526;SDS011;9393;42.158;24.748;2022-10-14T02:57:38;3.13;;;1.70;;
18526;SDS011;9393;42.158;24.748;2022-10-14T03:00:42;4.53;;;1.70;;
18526;SDS011;9393;42.158;24.748;2022-10-14T03:03:48;5.63;;;1.73;;
18526;SDS011;9393;42.158;24.748;2022-10-14T03:06:51;4.03;;;1.60;;
18526;SDS011;9393;42.158;24.748;2022-10-14T03:09:57;2.60;;;1.67;;
18526;SDS011;9393;42.158;24.748;2022-10-14T03:13:01;3.80;;;2.20;;
18526;SDS011;9393;42.158;24.748;2022-10-14T03:16:11;8.20;;;2.00;;
18526;SDS011;9393;42.158;24.748;2022-10-14T03:19:19;4.57;;;2.33;;
18526;SDS011;9393;42.158;24.748;2022-10-14T03:22:25;4.20;;;1.90;;
18526;SDS011;9393;42.158;24.748;2022-10-14T03:25:30;5.13;;;2.00;;
18526;SDS011;9393;42.158;24.748;2022-10-14T03:28:38;3.90;;;1.90;;
18526;SDS011;9393;42.158;24.748;2022-10-14T03:31:51;8.03;;;1.80;;
18526;SDS011;9393;42.158;24.748;2022-10-14T03:35:02;4.17;;;1.83;;
18526;SDS011;9393;42.158;24.748;2022-10-14T03:38:05;5.73;;;2.00;;
18526;SDS011;9393;42.158;24.748;2022-10-14T03:41:09;8.63;;;2.37;;
18526;SDS011;9393;42.158;24.748;2022-10-14T03:44:12;4.63;;;1.90;;
18526;SDS011;9393;42.158;24.748;2022-10-14T03:47:23;4.63;;;2.17;;
18526;SDS011;9393;42.158;24.748;2022-10-14T03:50:28;4.07;;;2.13;;
18526;SDS011;9393;42.158;24.748;2022-10-14T03:53:33;3.90;;;1.90;;
18526;SDS011;9393;42.158;24.748;2022-10-14T03:56:36;5.07;;;2.10;;
18526;SDS011;9393;42.158;24.748;2022-10-14T03:59:40;6.67;;;2.70;;
18526;SDS011;9393;42.158;24.748;2022-10-14T04:02:44;5.23;;;2.27;;
18526;SDS011;9393;42.158;24.748;2022-10-14T04:06:03;6.40;;;2.50;;
18526;SDS011;9393;42.158;24.748;2022-10-14T04:09:06;6.20;;;2.50;;
18526;SDS011;9393;42.158;24.748;2022-10-14T04:12:13;3.40;;;2.03;;
18526;SDS011;9393;42.158;24.748;2022-10-14T04:15:33;5.87;;;2.23;;
18526;SDS011;9393;42.158;24.748;2022-10-14T04:18:57;9.13;;;2.57;;
18526;SDS011;9393;42.158;24.748;2022-10-14T04:22:02;8.83;;;2.60;;
18526;SDS011;9393;42.158;24.748;2022-10-14T04:25:07;8.00;;;2.13;;
18526;SDS011;9393;42.158;24.748;2022-10-14T04:28:11;6.27;;;2.77;;
18526;SDS011;9393;42.158;24.748;2022-10-14T04:31:27;9.23;;;2.87;;
18526;SDS011;9393;42.158;24.748;2022-10-14T04:34:34;4.00;;;2.60;;
18526;SDS011;9393;42.158;24.748;2022-10-14T04:37:41;5.67;;;2.33;;
18526;SDS011;9393;42.158;24.748;2022-10-14T04:40:52;4.70;;;2.50;;
18526;SDS011;9393;42.158;24.748;2022-10-14T04:43:56;6.63;;;2.50;;
18526;SDS011;9393;42.158;24.748;2022-10-14T04:47:05;13.33;;;3.30;;
18526;SDS011;9393;42.158;24.748;2022-10-14T04:50:08;8.07;;;2.93;;
18526;SDS011;9393;42.158;24.748;2022-10-14T04:53:33;10.03;;;2.67;;
18526;SDS011;9393;42.158;24.748;2022-10-14T04:56:56;11.37;;;4.20;;
18526;SDS011;9393;42.158;24.748;2022-10-14T05:00:00;15.33;;;5.10;;
18526;SDS011;9393;42.158;24.748;2022-10-14T05:03:15;16.40;;;5.77;;
18526;SDS011;9393;42.158;24.748;2022-10-14T05:06:20;26.37;;;5.37;;
18526;SDS011;9393;42.158;24.748;2022-10-14T05:09:27;14.40;;;4.67;;
18526;SDS011;9393;42.158;24.748;2022-10-14T05:12:32;14.43;;;4.97;;
18526;SDS011;9393;42.158;24.748;2022-10-14T05:15:37;14.63;;;4.47;;
18526;SDS011;9393;42.158;24.748;2022-10-14T05:18:44;14.63;;;4.27;;
18526;SDS011;9393;42.158;24.748;2022-10-14T05:21:48;15.37;;;4.83;;
18526;SDS011;9393;42.158;24.748;2022-10-14T05:25:16;13.60;;;5.60;;
18526;SDS011;9393;42.158;24.748;2022-10-14T05:28:20;23.07;;;7.50;;
18526;SDS011;9393;42.158;24.748;2022-10-14T05:31:24;24.70;;;8.63;;
18526;SDS011;9393;42.158;24.748;2022-10-14T05:34:41;26.83;;;7.37;;
18526;SDS011;9393;42.158;24.748;2022-10-14T05:37:53;25.77;;;8.67;;
18526;SDS011;9393;42.158;24.748;2022-10-14T05:41:09;31.33;;;9.20;;
18526;SDS011;9393;42.158;24.748;2022-10-14T05:44:13;17.80;;;8.10;;
18526;SDS011;9393;42.158;24.748;2022-10-14T05:47:18;21.10;;;7.30;;
18526;SDS011;9393;42.158;24.748;2022-10-14T05:50:25;14.83;;;6.37;;
18526;SDS011;9393;42.158;24.748;2022-10-14T05:53:35;13.70;;;5.10;;
18526;SDS011;9393;42.158;24.748;2022-10-14T05:56:52;18.50;;;6.17;;
18526;SDS011;9393;42.158;24.748;2022-10-14T05:59:57;15.13;;;5.53;;
18526;SDS011;9393;42.158;24.748;2022-10-14T06:03:07;15.57;;;5.67;;
18526;SDS011;9393;42.158;24.748;2022-10-14T06:06:14;18.40;;;5.90;;
18526;SDS011;9393;42.158;24.748;2022-10-14T06:09:19;14.63;;;5.37;;
18526;SDS011;9393;42.158;24.748;2022-10-14T06:12:24;7.93;;;4.20;;
18526;SDS011;9393;42.158;24.748;2022-10-14T06:15:29;12.23;;;4.20;;
18526;SDS011;9393;42.158;24.748;2022-10-14T06:18:34;14.73;;;4.57;;
18526;SDS011;9393;42.158;24.748;2022-10-14T06:21:39;16.53;;;6.67;;
18526;SDS011;9393;42.158;24.748;2022-10-14T06:24:43;12.03;;;4.53;;
18526;SDS011;9393;42.158;24.748;2022-10-14T06:27:50;14.60;;;4.93;;
18526;SDS011;9393;42.158;24.748;2022-10-14T06:30:54;15.90;;;4.80;;
18526;SDS011;9393;42.158;24.748;2022-10-14T06:34:01;12.93;;;6.00;;
18526;SDS011;9393;42.158;24.748;2022-10-14T06:37:08;8.53;;;4.30;;
18526;SDS011;9393;42.158;24.748;2022-10-14T06:40:13;10.50;;;4.17;;
18526;SDS011;9393;42.158;24.748;2022-10-14T06:43:20;15.20;;;6.07;;
18526;SDS011;9393;42.158;24.748;2022-10-14T06:46:31;10.97;;;4.77;;
18526;SDS011;9393;42.158;24.748;2022-10-14T06:49:35;7.93;;;4.40;;
18526;SDS011;9393;42.158;24.748;2022-10-14T06:52:40;13.37;;;5.13;;
18526;SDS011;9393;42.158;24.748;2022-10-14T06:56:32;9.93;;;5.43;;
18526;SDS011;9393;42.158;24.748;2022-10-14T06:59:39;10.00;;;5.60;;
18526;SDS011;9393;42.158;24.748;2022-10-14T07:02:43;8.70;;;5.27;;
18526;SDS011;9393;42.158;24.748;2022-10-14T07:05:49;11.03;;;4.43;;
18526;SDS011;9393;42.158;24.748;2022-10-14T07:08:54;7.67;;;3.23;;
18526;SDS011;9393;42.158;24.748;2022-10-14T07:11:59;5.27;;;2.80;;
18526;SDS011;9393;42.158;24.748;2022-10-14T07:15:13;11.20;;;3.67;;
18526;SDS011;9393;42.158;24.748;2022-10-14T07:18:48;6.83;;;2.97;;
18526;SDS011;9393;42.158;24.748;2022-10-14T07:21:54;4.27;;;2.20;;
18526;SDS011;9393;42.158;24.748;2022-10-14T07:25:48;7.83;;;2.07;;
18526;SDS011;9393;42.158;24.748;2022-10-14T07:29:17;9.37;;;2.03;;
18526;SDS011;9393;42.158;24.748;2022-10-14T07:32:25;5.60;;;2.00;;
18526;SDS011;9393;42.158;24.748;2022-10-14T07:39:17;7.57;;;1.10;;
18526;SDS011;9393;42.158;24.748;2022-10-14T07:42:28;4.53;;;1.73;;
18526;SDS011;9393;42.158;24.748;2022-10-14T07:45:59;4.67;;;1.23;;
18526;SDS011;9393;42.158;24.748;2022-10-14T07:49:09;5.03;;;1.90;;
18526;SDS011;9393;42.158;24.748;2022-10-14T07:52:47;3.80;;;1.67;;
18526;SDS011;9393;42.158;24.748;2022-10-14T07:55:55;3.47;;;1.30;;
18526;SDS011;9393;42.158;24.748;2022-10-14T07:59:01;2.63;;;1.40;;
18526;SDS011;9393;42.158;24.748;2022-10-14T08:02:09;3.23;;;1.60;;
18526;SDS011;9393;42.158;24.748;2022-10-14T08:05:16;5.13;;;1.67;;
18526;SDS011;9393;42.158;24.748;2022-10-14T08:08:44;4.20;;;1.50;;
18526;SDS011;9393;42.158;24.748;2022-10-14T08:11:56;5.43;;;1.47;;
18526;SDS011;9393;42.158;24.748;2022-10-14T08:15:05;5.73;;;1.70;;
18526;SDS011;9393;42.158;24.748;2022-10-14T08:18:18;5.73;;;1.80;;
18526;SDS011;9393;42.158;24.748;2022-10-14T08:21:31;1.80;;;1.50;;
18526;SDS011;9393;42.158;24.748;2022-10-14T08:25:01;4.03;;;1.20;;
18526;SDS011;9393;42.158;24.748;2022-10-14T08:28:16;4.07;;;1.63;;
18526;SDS011;9393;42.158;24.748;2022-10-14T08:31:21;2.17;;;1.30;;
18526;SDS011;9393;42.158;24.748;2022-10-14T08:34:27;3.97;;;1.43;;
18526;SDS011;9393;42.158;24.748;2022-10-14T08:38:26;6.87;;;1.60;;
18526;SDS011;9393;42.158;24.748;2022-10-14T08:41:44;6.80;;;1.80;;
18526;SDS011;9393;42.158;24.748;2022-10-14T08:45:31;4.80;;;1.40;;
18526;SDS011;9393;42.158;24.748;2022-10-14T08:48:39;4.17;;;1.30;;
18526;SDS011;9393;42.158;24.748;2022-10-14T08:51:47;5.10;;;1.70;;
18526;SDS011;9393;42.158;24.748;2022-10-14T08:54:59;5.30;;;1.60;;
18526;SDS011;9393;42.158;24.748;2022-10-14T08:58:11;6.43;;;1.53;;
18526;SDS011;9393;42.158;24.748;2022-10-14T09:01:50;4.57;;;1.63;;
18526;SDS011;9393;42.158;24.748;2022-10-14T09:05:21;3.90;;;1.63;;
18526;SDS011;9393;42.158;24.748;2022-10-14T09:08:40;5.47;;;1.70;;
18526;SDS011;9393;42.158;24.748;2022-10-14T09:11:58;5.77;;;1.60;;
18526;SDS011;9393;42.158;24.748;2022-10-14T09:15:31;3.17;;;1.33;;
18526;SDS011;9393;42.158;24.748;2022-10-14T09:18:41;6.10;;;1.60;;
18526;SDS011;9393;42.158;24.748;2022-10-14T09:21:56;10.07;;;1.87;;
18526;SDS011;9393;42.158;24.748;2022-10-14T09:25:05;7.43;;;1.60;;
18526;SDS011;9393;42.158;24.748;2022-10-14T09:28:32;3.03;;;1.47;;
18526;SDS011;9393;42.158;24.748;2022-10-14T09:31:46;2.73;;;1.37;;
18526;SDS011;9393;42.158;24.748;2022-10-14T09:35:21;1.90;;;1.23;;
18526;SDS011;9393;42.158;24.748;2022-10-14T09:38:41;4.13;;;1.20;;
18526;SDS011;9393;42.158;24.748;2022-10-14T09:41:57;3.20;;;1.13;;
18526;SDS011;9393;42.158;24.748;2022-10-14T09:45:13;2.23;;;1.17;;
18526;SDS011;9393;42.158;24.748;2022-10-14T09:48:27;2.23;;;1.40;;
18526;SDS011;9393;42.158;24.748;2022-10-14T09:52:07;5.47;;;1.40;;
18526;SDS011;9393;42.158;24.748;2022-10-14T09:55:53;1.80;;;1.20;;
18526;SDS011;9393;42.158;24.748;2022-10-14T09:59:12;5.00;;;1.10;;
18526;SDS011;9393;42.158;24.748;2022-10-14T10:02:37;2.03;;;1.20;;
18526;SDS011;9393;42.158;24.748;2022-10-14T10:05:57;4.80;;;1.83;;
18526;SDS011;9393;42.158;24.748;2022-10-14T10:09:32;1.87;;;1.47;;
18526;SDS011;9393;42.158;24.748;2022-10-14T10:13:31;4.80;;;1.40;;
18526;SDS011;9393;42.158;24.748;2022-10-14T10:16:43;3.77;;;1.20;;
18526;SDS011;9393;42.158;24.748;2022-10-14T10:20:06;6.97;;;1.40;;
18526;SDS011;9393;42.158;24.748;2022-10-14T10:24:19;6.23;;;2.60;;
18526;SDS011;9393;42.158;24.748;2022-10-14T10:27:36;3.70;;;2.13;;
18526;SDS011;9393;42.158;24.748;2022-10-14T10:30:56;3.73;;;1.40;;
18526;SDS011;9393;42.158;24.748;2022-10-14T10:34:26;4.20;;;1.80;;
18526;SDS011;9393;42.158;24.748;2022-10-14T10:38:14;10.67;;;2.07;;
18526;SDS011;9393;42.158;24.748;2022-10-14T10:41:33;4.20;;;1.63;;
18526;SDS011;9393;42.158;24.748;2022-10-14T10:44:55;3.87;;;1.10;;
18526;SDS011;9393;42.158;24.748;2022-10-14T10:48:06;2.17;;;1.27;;
18526;SDS011;9393;42.158;24.748;2022-10-14T10:51:19;2.37;;;1.27;;
18526;SDS011;9393;42.158;24.748;2022-10-14T10:54:32;3.03;;;1.50;;
18526;SDS011;9393;42.158;24.748;2022-10-14T10:57:50;2.87;;;1.40;;
18526;SDS011;9393;42.158;24.748;2022-10-14T11:01:09;1.60;;;1.23;;
18526;SDS011;9393;42.158;24.748;2022-10-14T11:04:27;6.33;;;1.87;;
18526;SDS011;9393;42.158;24.748;2022-10-14T11:07:35;3.10;;;1.13;;
18526;SDS011;9393;42.158;24.748;2022-10-14T11:11:06;4.73;;;1.17;;
18526;SDS011;9393;42.158;24.748;2022-10-14T11:14:37;4.47;;;1.27;;
18526;SDS011;9393;42.158;24.748;2022-10-14T11:17:59;5.60;;;1.50;;
18526;SDS011;9393;42.158;24.748;2022-10-14T11:21:08;4.80;;;1.60;;
18526;SDS011;9393;42.158;24.748;2022-10-14T11:24:21;2.93;;;1.43;;
18526;SDS011;9393;42.158;24.748;2022-10-14T11:27:40;3.00;;;1.30;;
18526;SDS011;9393;42.158;24.748;2022-10-14T11:30:48;3.50;;;1.80;;
18526;SDS011;9393;42.158;24.748;2022-10-14T11:34:02;4.95;;;1.42;;
18526;SDS011;9393;42.158;24.748;2022-10-14T11:37:24;2.97;;;1.13;;
18526;SDS011;9393;42.158;24.748;2022-10-14T11:40:32;4.07;;;1.30;;
18526;SDS011;9393;42.158;24.748;2022-10-14T11:43:42;6.10;;;1.60;;
18526;SDS011;9393;42.158;24.748;2022-10-14T11:46:52;3.93;;;2.33;;
18526;SDS011;9393;42.158;24.748;2022-10-14T11:49:58;2.75;;;1.52;;
18526;SDS011;9393;42.158;24.748;2022-10-14T11:53:07;5.50;;;1.63;;
18526;SDS011;9393;42.158;24.748;2022-10-14T11:56:18;5.93;;;2.60;;
18526;SDS011;9393;42.158;24.748;2022-10-14T11:59:38;3.00;;;1.40;;
18526;SDS011;9393;42.158;24.748;2022-10-14T12:03:14;3.30;;;1.13;;
18526;SDS011;9393;42.158;24.748;2022-10-14T12:06:24;5.27;;;1.10;;
18526;SDS011;9393;42.158;24.748;2022-10-14T12:09:34;3.53;;;1.37;;
18526;SDS011;9393;42.158;24.748;2022-10-14T12:12:40;5.33;;;1.30;;
18526;SDS011;9393;42.158;24.748;2022-10-14T12:15:47;5.13;;;1.30;;
18526;SDS011;9393;42.158;24.748;2022-10-14T12:18:54;5.63;;;1.30;;
18526;SDS011;9393;42.158;24.748;2022-10-14T12:22:03;5.20;;;1.40;;
18526;SDS011;9393;42.158;24.748;2022-10-14T12:25:15;2.53;;;1.37;;
18526;SDS011;9393;42.158;24.748;2022-10-14T12:28:23;2.00;;;1.30;;
18526;SDS011;9393;42.158;24.748;2022-10-14T12:31:33;4.00;;;1.20;;
18526;SDS011;9393;42.158;24.748;2022-10-14T12:34:38;4.07;;;1.40;;
18526;SDS011;9393;42.158;24.748;2022-10-14T12:37:47;4.70;;;1.33;;
18526;SDS011;9393;42.158;24.748;2022-10-14T12:40:52;3.20;;;1.20;;
18526;SDS011;9393;42.158;24.748;2022-10-14T12:43:59;4.87;;;1.17;;
18526;SDS011;9393;42.158;24.748;2022-10-14T12:47:05;4.23;;;1.60;;
18526;SDS011;9393;42.158;24.748;2022-10-14T12:50:24;4.90;;;1.57;;
18526;SDS011;9393;42.158;24.748;2022-10-14T12:53:31;4.27;;;1.50;;
18526;SDS011;9393;42.158;24.748;2022-10-14T12:56:37;2.97;;;1.40;;
18526;SDS011;9393;42.158;24.748;2022-10-14T12:59:42;5.87;;;1.50;;
18526;SDS011;9393;42.158;24.748;2022-10-14T13:02:53;3.43;;;1.17;;
18526;SDS011;9393;42.158;24.748;2022-10-14T13:09:31;5.00;;;1.60;;
18526;SDS011;9393;42.158;24.748;2022-10-14T13:12:37;4.67;;;1.57;;
18526;SDS011;9393;42.158;24.748;2022-10-14T13:15:47;6.83;;;1.83;;
18526;SDS011;9393;42.158;24.748;2022-10-14T13:18:53;4.70;;;1.63;;
18526;SDS011;9393;42.158;24.748;2022-10-14T13:21:58;4.57;;;2.00;;
18526;SDS011;9393;42.158;24.748;2022-10-14T13:25:16;4.83;;;1.30;;
18526;SDS011;9393;42.158;24.748;2022-10-14T13:28:24;4.67;;;1.90;;
18526;SDS011;9393;42.158;24.748;2022-10-14T13:31:34;2.53;;;1.60;;
18526;SDS011;9393;42.158;24.748;2022-10-14T13:34:46;5.13;;;2.07;;
18526;SDS011;9393;42.158;24.748;2022-10-14T13:37:58;3.90;;;1.93;;
18526;SDS011;9393;42.158;24.748;2022-10-14T13:41:03;5.77;;;2.03;;
18526;SDS011;9393;42.158;24.748;2022-10-14T13:44:08;6.33;;;1.90;;
18526;SDS011;9393;42.158;24.748;2022-10-14T13:47:13;6.67;;;1.60;;
18526;SDS011;9393;42.158;24.748;2022-10-14T13:50:26;4.00;;;1.57;;
18526;SDS011;9393;42.158;24.748;2022-10-14T13:53:34;2.17;;;1.77;;
18526;SDS011;9393;42.158;24.748;2022-10-14T13:56:37;4.87;;;1.97;;
18526;SDS011;9393;42.158;24.748;2022-10-14T13:59:41;4.93;;;1.80;;
18526;SDS011;9393;42.158;24.748;2022-10-14T14:03:15;3.90;;;1.50;;
18526;SDS011;9393;42.158;24.748;2022-10-14T14:06:24;4.37;;;1.90;;
18526;SDS011;9393;42.158;24.748;2022-10-14T14:09:47;4.00;;;1.60;;
18526;SDS011;9393;42.158;24.748;2022-10-14T14:12:51;2.93;;;1.83;;
18526;SDS011;9393;42.158;24.748;2022-10-14T14:15:55;4.93;;;1.70;;
18526;SDS011;9393;42.158;24.748;2022-10-14T14:18:58;4.60;;;1.77;;
18526;SDS011;9393;42.158;24.748;2022-10-14T14:22:15;8.47;;;1.73;;
18526;SDS011;9393;42.158;24.748;2022-10-14T14:25:22;4.50;;;1.63;;
18526;SDS011;9393;42.158;24.748;2022-10-14T14:28:47;5.47;;;2.40;;
18526;SDS011;9393;42.158;24.748;2022-10-14T14:31:51;6.57;;;1.90;;
18526;SDS011;9393;42.158;24.748;2022-10-14T14:35:10;3.03;;;1.80;;
18526;SDS011;9393;42.158;24.748;2022-10-14T14:38:24;6.57;;;1.83;;
18526;SDS011;9393;42.158;24.748;2022-10-14T14:41:30;5.63;;;1.70;;
18526;SDS011;9393;42.158;24.748;2022-10-14T14:44:34;13.10;;;5.60;;
18526;SDS011;9393;42.158;24.748;2022-10-14T14:47:37;4.53;;;1.70;;
18526;SDS011;9393;42.158;24.748;2022-10-14T14:50:43;5.87;;;2.50;;
18526;SDS011;9393;42.158;24.748;2022-10-14T14:53:50;6.07;;;2.43;;
18526;SDS011;9393;42.158;24.748;2022-10-14T14:56:55;7.80;;;3.80;;
18526;SDS011;9393;42.158;24.748;2022-10-14T15:00:06;13.50;;;2.27;;
18526;SDS011;9393;42.158;24.748;2022-10-14T15:03:21;9.07;;;2.60;;
18526;SDS011;9393;42.158;24.748;2022-10-14T15:06:26;10.23;;;2.27;;
18526;SDS011;9393;42.158;24.748;2022-10-14T15:09:34;7.73;;;2.30;;
18526;SDS011;9393;42.158;24.748;2022-10-14T15:12:49;7.00;;;2.90;;
18526;SDS011;9393;42.158;24.748;2022-10-14T15:15:57;7.83;;;3.10;;
18526;SDS011;9393;42.158;24.748;2022-10-14T15:22:38;8.90;;;2.77;;
18526;SDS011;9393;42.158;24.748;2022-10-14T15:25:54;4.67;;;2.30;;
18526;SDS011;9393;42.158;24.748;2022-10-14T15:29:12;4.13;;;2.23;;
18526;SDS011;9393;42.158;24.748;2022-10-14T15:32:25;3.27;;;2.60;;
18526;SDS011;9393;42.158;24.748;2022-10-14T15:35:28;13.00;;;3.33;;
18526;SDS011;9393;42.158;24.748;2022-10-14T15:38:32;9.13;;;2.83;;
18526;SDS011;9393;42.158;24.748;2022-10-14T15:41:37;7.87;;;3.50;;
18526;SDS011;9393;42.158;24.748;2022-10-14T15:44:40;9.70;;;3.03;;
18526;SDS011;9393;42.158;24.748;2022-10-14T15:47:43;12.27;;;3.50;;
18526;SDS011;9393;42.158;24.748;2022-10-14T15:50:47;4.87;;;3.37;;
18526;SDS011;9393;42.158;24.748;2022-10-14T15:53:51;9.10;;;3.30;;
18526;SDS011;9393;42.158;24.748;2022-10-14T15:56:55;12.30;;;3.93;;
18526;SDS011;9393;42.158;24.748;2022-10-14T15:59:59;9.43;;;3.60;;
18526;SDS011;9393;42.158;24.748;2022-10-14T16:03:11;7.03;;;3.23;;
18526;SDS011;9393;42.158;24.748;2022-10-14T16:06:18;9.37;;;4.23;;
18526;SDS011;9393;42.158;24.748;2022-10-14T16:09:23;12.57;;;4.77;;
18526;SDS011;9393;42.158;24.748;2022-10-14T16:12:29;8.57;;;4.37;;
18526;SDS011;9393;42.158;24.748;2022-10-14T16:15:34;8.07;;;3.90;;
18526;SDS011;9393;42.158;24.748;2022-10-14T16:18:43;10.57;;;3.00;;
18526;SDS011;9393;42.158;24.748;2022-10-14T16:21:47;8.47;;;3.80;;
18526;SDS011;9393;42.158;24.748;2022-10-14T16:24:50;15.23;;;5.70;;
18526;SDS011;9393;42.158;24.748;2022-10-14T16:27:55;16.47;;;5.20;;
18526;SDS011;9393;42.158;24.748;2022-10-14T16:30:59;13.97;;;5.63;;
18526;SDS011;9393;42.158;24.748;2022-10-14T16:34:02;13.83;;;6.10;;
18526;SDS011;9393;42.158;24.748;2022-10-14T16:37:05;15.20;;;6.87;;
18526;SDS011;9393;42.158;24.748;2022-10-14T16:40:10;16.70;;;6.03;;
18526;SDS011;9393;42.158;24.748;2022-10-14T16:43:15;12.80;;;7.20;;
18526;SDS011;9393;42.158;24.748;2022-10-14T16:46:18;14.27;;;5.60;;
18526;SDS011;9393;42.158;24.748;2022-10-14T16:49:42;9.73;;;5.33;;
18526;SDS011;9393;42.158;24.748;2022-10-14T16:52:47;12.30;;;4.90;;
18526;SDS011;9393;42.158;24.748;2022-10-14T16:56:10;12.87;;;5.33;;
18526;SDS011;9393;42.158;24.748;2022-10-14T16:59:34;10.43;;;5.57;;
18526;SDS011;9393;42.158;24.748;2022-10-14T17:02:37;14.27;;;5.47;;
18526;SDS011;9393;42.158;24.748;2022-10-14T17:05:40;11.00;;;5.87;;
18526;SDS011;9393;42.158;24.748;2022-10-14T17:08:44;12.73;;;6.13;;
18526;SDS011;9393;42.158;24.748;2022-10-14T17:11:48;16.37;;;7.13;;
18526;SDS011;9393;42.158;24.748;2022-10-14T17:14:52;18.97;;;8.63;;
18526;SDS011;9393;42.158;24.748;2022-10-14T17:17:55;13.87;;;7.20;;
18526;SDS011;9393;42.158;24.748;2022-10-14T17:20:59;13.17;;;6.43;;
18526;SDS011;9393;42.158;24.748;2022-10-14T17:24:02;9.27;;;5.90;;
18526;SDS011;9393;42.158;24.748;2022-10-14T17:27:06;12.97;;;6.63;;
18526;SDS011;9393;42.158;24.748;2022-10-14T17:30:11;20.33;;;8.97;;
18526;SDS011;9393;42.158;24.748;2022-10-14T17:33:14;141.47;;;46.63;;
18526;SDS011;9393;42.158;24.748;2022-10-14T17:36:20;103.77;;;34.77;;
18526;SDS011;9393;42.158;24.748;2022-10-14T17:39:24;129.17;;;46.97;;
18526;SDS011;9393;42.158;24.748;2022-10-14T17:42:30;118.97;;;43.77;;
18526;SDS011;9393;42.158;24.748;2022-10-14T17:45:34;55.93;;;23.10;;
18526;SDS011;9393;42.158;24.748;2022-10-14T17:48:39;64.37;;;23.63;;
18526;SDS011;9393;42.158;24.748;2022-10-14T17:51:43;33.13;;;14.43;;
18526;SDS011;9393;42.158;24.748;2022-10-14T17:54:46;42.83;;;16.03;;
18526;SDS011;9393;42.158;24.748;2022-10-14T17:57:50;55.67;;;20.13;;
18526;SDS011;9393;42.158;24.748;2022-10-14T18:00:54;36.73;;;15.40;;
18526;SDS011;9393;42.158;24.748;2022-10-14T18:04:04;30.23;;;14.67;;
18526;SDS011;9393;42.158;24.748;2022-10-14T18:07:08;29.83;;;12.37;;
18526;SDS011;9393;42.158;24.748;2022-10-14T18:10:12;22.83;;;9.00;;
18526;SDS011;9393;42.158;24.748;2022-10-14T18:13:16;23.43;;;9.50;;
18526;SDS011;9393;42.158;24.748;2022-10-14T18:16:21;14.83;;;8.47;;
18526;SDS011;9393;42.158;24.748;2022-10-14T18:19:26;20.80;;;11.57;;
18526;SDS011;9393;42.158;24.748;2022-10-14T18:22:30;13.70;;;7.80;;
18526;SDS011;9393;42.158;24.748;2022-10-14T18:25:33;15.20;;;8.33;;
18526;SDS011;9393;42.158;24.748;2022-10-14T18:28:38;20.27;;;10.63;;
18526;SDS011;9393;42.158;24.748;2022-10-14T18:31:45;17.03;;;10.50;;
18526;SDS011;9393;42.158;24.748;2022-10-14T18:34:50;15.67;;;9.93;;
18526;SDS011;9393;42.158;24.748;2022-10-14T18:37:53;17.27;;;9.73;;
18526;SDS011;9393;42.158;24.748;2022-10-14T18:40:57;15.63;;;8.73;;
18526;SDS011;9393;42.158;24.748;2022-10-14T18:44:01;15.97;;;9.37;;
18526;SDS011;9393;42.158;24.748;2022-10-14T18:47:06;10.93;;;7.00;;
18526;SDS011;9393;42.158;24.748;2022-10-14T18:50:10;13.07;;;5.07;;
18526;SDS011;9393;42.158;24.748;2022-10-14T18:53:13;7.83;;;4.90;;
18526;SDS011;9393;42.158;24.748;2022-10-14T18:56:17;6.93;;;4.80;;
18526;SDS011;9393;42.158;24.748;2022-10-14T18:59:21;8.37;;;5.07;;
18526;SDS011;9393;42.158;24.748;2022-10-14T19:02:26;7.40;;;5.43;;
18526;SDS011;9393;42.158;24.748;2022-10-14T19:05:33;7.17;;;5.37;;
18526;SDS011;9393;42.158;24.748;2022-10-14T19:08:37;12.17;;;5.50;;
18526;SDS011;9393;42.158;24.748;2022-10-14T19:11:41;8.23;;;5.60;;
18526;SDS011;9393;42.158;24.748;2022-10-14T19:14:45;8.23;;;4.97;;
18526;SDS011;9393;42.158;24.748;2022-10-14T19:17:49;11.53;;;5.70;;
18526;SDS011;9393;42.158;24.748;2022-10-14T19:21:01;7.93;;;5.30;;
18526;SDS011;9393;42.158;24.748;2022-10-14T19:24:05;9.00;;;5.30;;